Flight Track Log - Related Links

Times and Time Zones

All times are in EDT time to prevent confusion due to time zone crossing. See the UAL495 flight status page for this flight to view local times or setup timezone preferences in your user account.


Time Position Orientation Groundspeed Altitude Reporting Facility
EDT Latitude Longitude Course Direction KTS MPH feet Rate Location/Type
Fri 08:55:55 AM 33.9333 -118.4333 90° East 188 216 1,400  Level Southern California TRACON
Fri 08:56:23 AM 33.9239 -118.4653 250° West 241 277 2,400 2,360 Climbing Los Angeles Center
Fri 08:57:24 AM 33.8628 -118.4808 192° South 227 261 4,900 2,678 Climbing Los Angeles Center
Fri 08:58:00 AM 33.7837 -118.6449 132° Southeast  Level FlightAware Approximate
Fri 08:58:24 AM 33.7953 -118.4989 193° South 268 308 7,800  Level Los Angeles Center
Fri 08:59:00 AM 33.7048 -118.5434 134° Southeast  Level FlightAware Approximate
Fri 08:59:24 AM 33.7169 -118.5139 189° South 287 330 10,700  Level Los Angeles Center
Fri 09:00:00 AM 33.6667 -118.4169 101° East  Level FlightAware Approximate
Fri 09:00:25 AM 33.6625 -118.4417 132° Southeast 321 369 12,500  Level Los Angeles Center
Fri 09:01:00 AM 33.6334 -118.2873 90° East  Level FlightAware Approximate
Fri 09:01:25 AM 33.6439 -118.2967 99° East 378 435 14,800  Level Los Angeles Center
Fri 09:02:26 AM 33.6603 -118.1692 81° East 403 464 17,100 2,182 Climbing Los Angeles Center
Fri 09:03:26 AM 33.7444 -118.0894 38° Northeast 397 457 19,200 2,083 Climbing Los Angeles Center
Fri 09:04:27 AM 33.8342 -118.0100 36° Northeast 404 465 21,300 2,033 Climbing Los Angeles Center
Fri 09:05:27 AM 33.9258 -117.9253 37° Northeast 415 478 23,300 1,835 Climbing Los Angeles Center
Fri 09:06:28 AM 34.0211 -117.8389 37° Northeast 427 491 25,000 1,686 Climbing Los Angeles Center
Fri 09:07:28 AM 34.1153 -117.7456 39° Northeast 438 504 26,700 1,537 Climbing Los Angeles Center
Fri 09:08:29 AM 34.1986 -117.6294 49° Northeast 455 524 28,100 1,820 Climbing Los Angeles Center
Fri 09:09:30 AM 34.2825 -117.5133 49° Northeast 461 531 30,400 2,132 Climbing Los Angeles Center
Fri 09:10:30 AM 34.3633 -117.4036 48° Northeast 443 510 32,400 1,934 Climbing Los Angeles Center
Fri 09:11:31 AM 34.4444 -117.2911 49° Northeast 429 494 34,300 1,339 Climbing Los Angeles Center
Fri 09:12:31 AM 34.5228 -117.1850 48° Northeast 425 489 35,100 793 Climbing Los Angeles Center
Fri 09:13:32 AM 34.6022 -117.0742 49° Northeast 435 501 35,900 836 Climbing Los Angeles Center
Fri 09:14:33 AM 34.6842 -116.9631 48° Northeast 443 510 36,800 541 Climbing Los Angeles Center
Fri 09:15:34 AM 34.7658 -116.8497 49° Northeast 448 516 37,000 99 Climbing Los Angeles Center
Fri 09:16:34 AM 34.8453 -116.7383 49° Northeast 441 507 37,000  Level Los Angeles Center
Fri 09:17:35 AM 34.9414 -116.6033 49° Northeast 441 507 37,000  Level Los Angeles Center
Fri 09:18:36 AM 35.0250 -116.4950 47° Northeast 441 507 37,000  Level Los Angeles Center
Fri 09:19:37 AM 35.1103 -116.3903 45° Northeast 439 505 37,000  Level Los Angeles Center
Fri 09:20:38 AM 35.1942 -116.2853 46° Northeast 434 499 37,000  Level Los Angeles Center
Fri 09:21:39 AM 35.2781 -116.1786 46° Northeast 435 501 37,000  Level Los Angeles Center
Fri 09:22:39 AM 35.3619 -116.0731 46° Northeast 434 499 37,000 347 Level Los Angeles Center
Fri 09:23:40 AM 35.4464 -115.9664 46° Northeast 436 502 37,700 639 Climbing Los Angeles Center
Fri 09:24:41 AM 35.5433 -115.8467 45° Northeast 436 502 38,300 443 Climbing Los Angeles Center
Fri 09:25:42 AM 35.6019 -115.7094 62° Northeast 452 520 38,600 344 Climbing Los Angeles Center
Fri 09:26:43 AM 35.6625 -115.5689 62° Northeast 463 533 39,000 197 Climbing Los Angeles Center
Fri 09:27:44 AM 35.7083 -115.4544 64° Northeast 467 537 39,000  Level Los Angeles Center
Fri 09:28:45 AM 35.7758 -115.2819 64° Northeast 469 540 39,000  Level Los Angeles Center
Fri 09:29:46 AM 35.8300 -115.1394 65° Northeast 465 535 39,000  Level Los Angeles Center
Fri 09:30:48 AM 35.8867 -114.9972 64° Northeast 464 534 39,000  Level Los Angeles Center
Fri 09:31:49 AM 35.9419 -114.8544 64° Northeast 465 535 39,000  Level Los Angeles Center
Fri 09:32:50 AM 35.9969 -114.7094 65° Northeast 467 537 39,000  Level Los Angeles Center
Fri 09:33:51 AM 36.0533 -114.5644 64° Northeast 469 540 39,000  Level Los Angeles Center
Fri 09:34:52 AM 36.1208 -114.3883 65° Northeast 473 544 39,000  Level Los Angeles Center
Fri 09:35:53 AM 36.1772 -114.2403 65° Northeast 476 548 39,000  Level Los Angeles Center
Fri 09:36:54 AM 36.2342 -114.0922 64° Northeast 477 549 39,000  Level Los Angeles Center
Fri 09:37:56 AM 36.2908 -113.9458 64° Northeast 475 547 39,000  Level Los Angeles Center
Fri 09:38:57 AM 36.3461 -113.7967 65° Northeast 475 547 39,000  Level Los Angeles Center
Fri 09:39:58 AM 36.4003 -113.6489 65° Northeast 473 544 39,000  Level Los Angeles Center
Fri 09:40:59 AM 36.4564 -113.5019 65° Northeast 472 543 39,000  Level Los Angeles Center
Fri 09:42:01 AM 36.5117 -113.3542 65° Northeast 471 542 39,000  Level Los Angeles Center
Fri 09:43:02 AM 36.5639 -113.2103 66° East 464 534 39,000  Level Los Angeles Center
Fri 09:44:03 AM 36.6267 -113.0386 65° Northeast 459 528 39,000  Level Los Angeles Center
Fri 09:45:04 AM 36.6792 -112.8978 65° Northeast 454 522 39,000  Level Los Angeles Center
Fri 09:46:06 AM 36.7306 -112.7550 66° East 453 521 39,000  Level Los Angeles Center
Fri 09:47:07 AM 36.7819 -112.6136 66° East 452 520 39,000  Level Los Angeles Center
Fri 09:48:09 AM 36.8347 -112.4703 65° Northeast 455 524 39,000  Level Los Angeles Center
Fri 09:49:10 AM 36.8864 -112.3275 66° East 455 524 39,000  Level Los Angeles Center
Fri 09:50:11 AM 36.9381 -112.1842 66° East 456 525 39,000  Level Los Angeles Center
Fri 09:51:05 AM 36.9906 -112.0389 66° East 459 528 39,000  Level Denver Center
Fri 09:52:06 AM 37.0422 -111.8933 66° East 461 531 39,000  Level Denver Center
Fri 09:53:08 AM 37.0950 -111.7489 65° Northeast 460 529 39,000  Level Denver Center
Fri 09:54:09 AM 37.1456 -111.6022 67° East 460 529 39,000  Level Denver Center
Fri 09:55:10 AM 37.1906 -111.4647 68° East 438 504 39,000  Level Denver Center
Fri 09:56:11 AM 37.2403 -111.3242 66° East 442 509 39,000  Level Denver Center
Fri 09:57:12 AM 37.2972 -111.1547 67° East 442 509 39,000  Level Denver Center
Fri 09:58:14 AM 37.3467 -111.0117 66° East 447 514 39,000  Level Denver Center
Fri 09:59:15 AM 37.3969 -110.8675 66° East 451 519 39,000  Level Denver Center
Fri 10:00:16 AM 37.4467 -110.7214 67° East 455 524 39,000  Level Denver Center
Fri 10:01:17 AM 37.4958 -110.5744 67° East 457 526 39,000  Level Denver Center
Fri 10:02:18 AM 37.5481 -110.4214 67° East 460 529 39,000  Level Denver Center
Fri 10:03:20 AM 37.5947 -110.2800 67° East 459 528 39,000  Level Denver Center
Fri 10:04:21 AM 37.6514 -110.1136 67° East 460 529 39,000  Level Denver Center
Fri 10:05:22 AM 37.6983 -109.9728 67° East 457 526 39,000  Level Denver Center
Fri 10:06:24 AM 37.7450 -109.8322 67° East 454 522 39,000  Level Denver Center
Fri 10:07:25 AM 37.7981 -109.6672 68° East 453 521 39,000  Level Denver Center
Fri 10:08:26 AM 37.8442 -109.5258 68° East 454 522 39,000  Level Denver Center
Fri 10:09:28 AM 37.8975 -109.3597 68° East 456 525 39,000  Level Denver Center
Fri 10:10:29 AM 37.9433 -109.2172 68° East 455 524 39,000  Level Denver Center
Fri 10:11:31 AM 37.9894 -109.0753 68° East 454 522 39,000  Level Denver Center
Fri 10:12:32 AM 38.0417 -108.9111 68° East 449 517 39,000  Level Denver Center
Fri 10:13:34 AM 38.0844 -108.7706 69° East 455 524 39,000  Level Denver Center
Fri 10:14:35 AM 38.1372 -108.6114 67° East 443 510 39,000  Level Denver Center
Fri 10:15:37 AM 38.1803 -108.4700 69° East 447 514 39,000  Level Denver Center
Fri 10:16:38 AM 38.2308 -108.3089 68° East 443 510 39,000  Level Denver Center
Fri 10:17:40 AM 38.2742 -108.1694 68° East 441 507 39,000  Level Denver Center
Fri 10:18:41 AM 38.3242 -108.0069 69° East 443 510 39,000  Level Denver Center
Fri 10:19:43 AM 38.3694 -107.8689 67° East 443 510 39,000 -537 Level Denver Center
Fri 10:20:44 AM 38.4286 -107.7397 60° Northeast 440 506 37,900 -1,561 Descending Denver Center
Fri 10:21:46 AM 38.4928 -107.5897 61° Northeast 434 499 35,800 -2,226 Descending Denver Center
Fri 10:22:48 AM 38.5497 -107.4611 60° Northeast 434 499 33,300 -2,683 Descending Denver Center
Fri 10:23:49 AM 38.6150 -107.3103 61° Northeast 436 502 30,300 -2,780 Descending Denver Center
Fri 10:24:51 AM 38.6700 -107.1878 60° Northeast 438 504 27,600 -1,597 Descending Denver Center
Fri 10:25:53 AM 38.7278 -107.0508 62° Northeast 437 503 27,000 -293 Descending Denver Center
Fri 10:26:54 AM 38.7839 -106.9239 60° Northeast 413 475 27,000  Level Denver Center
Fri 10:27:56 AM 38.8506 -106.7694 61° Northeast 413 475 27,000  Level Denver Center
Fri 10:28:58 AM 38.9061 -106.6417 61° Northeast 410 472 27,000  Level Denver Center
Fri 10:30:00 AM 38.9578 -106.5181 62° Northeast 411 473 27,000  Level Denver Center
Fri 10:31:01 AM 39.0194 -106.3736 61° Northeast 411 473 27,000  Level Denver Center
Fri 10:32:03 AM 39.0708 -106.2508 62° Northeast 409 471 27,000  Level Denver Center
Fri 10:33:05 AM 39.1325 -106.1050 61° Northeast 409 471 27,000  Level Denver Center
Fri 10:34:07 AM 39.1892 -105.9739 61° Northeast 413 475 27,000 -194 Level Denver Center
Fri 10:35:09 AM 39.2450 -105.8411 61° Northeast 416 479 26,600 -1,258 Descending Denver Center
Fri 10:36:11 AM 39.3000 -105.7086 62° Northeast 415 478 24,400 -2,081 Descending Denver Center
Fri 10:37:13 AM 39.3547 -105.5794 61° Northeast 408 470 22,300 -1,452 Descending Denver Center
Fri 10:38:15 AM 39.4075 -105.4572 61° Northeast 372 428 21,400 -1,366 Descending Denver Center
Fri 10:39:16 AM 39.4667 -105.3469 55° Northeast 344 396 19,500 -1,805 Descending Denver Center
Fri 10:40:18 AM 39.5167 -105.2503 56° Northeast 322 371 17,700 -1,452 Descending Denver Center
Fri 10:41:20 AM 39.5708 -105.1469 56° Northeast 316 364 16,500 -1,016 Descending Denver Center
Fri 10:42:22 AM 39.6178 -105.0550 56° Northeast 316 364 15,600 -919 Descending Denver Center
Fri 10:43:24 AM 39.6667 -104.9633 55° Northeast 310 357 14,600 -774 Descending Denver Center
Fri 10:44:26 AM 39.7164 -104.8675 56° Northeast 293 337 14,000 -919 Descending Denver Center
Fri 10:45:28 AM 39.7767 -104.8408 19° North 238 274 12,700 -1,452 Descending Denver Center
Fri 10:46:30 AM 39.8489 -104.8394 North 241 277 11,000 -823 Descending Denver Center
Fri 10:47:32 AM 39.9161 -104.8369 North 240 276 11,000 -484 Level Denver Center
Fri 10:48:34 AM 39.9806 -104.8378 359° North 231 266 10,000 -726 Descending Denver Center
Fri 10:49:36 AM 40.0522 -104.8403 358° North 236 272 9,500 -484 Descending Denver Center
Fri 10:50:38 AM 40.1164 -104.8400 360° North 232 267 9,000 -242 Descending Denver Center
Fri 10:51:40 AM 40.1672 -104.7931 35° Northeast 251 289 9,000 -48 Level Denver Center
Fri 10:52:42 AM 40.1181 -104.7336 137° Southeast 257 296 8,900 -242 Descending Denver Center
Fri 10:53:44 AM 40.0583 -104.7022 158° South 235 270 8,500 -726 Descending Denver Center
Fri 10:54:46 AM 40.0000 -104.6947 174° South 197 227 7,400 -1,065 Descending Denver Center

Login

Don't have an account? Register now (free) for customized features, flight alerts, and more!